Time;durP1;ratioP1;P1;durP2;ratioP2;P2;SDS_P1;SDS_P2;PMS_P1;PMS_P2;Temp;Humidity;BMP_temperature;BMP_pressure;BME280_temperature;BME280_humidity;BME280_pressure;Samples;Min_cycle;Max_cycle;Signal;HPM_P1;HPM_P2
2022/06/04 00:01:12;;;;;;;4.93;3.67;;;19.30;99.90;;;;;;5024569;28;20181;-71
2022/06/04 00:03:40;;;;;;;5.82;5.00;;;19.30;99.90;;;;;;5026798;28;20677;-72
2022/06/04 00:06:05;;;;;;;9.13;4.50;;;19.30;99.90;;;;;;5026141;28;20194;-72
2022/06/04 00:08:33;;;;;;;4.50;4.07;;;19.30;99.90;;;;;;5019952;28;20188;-70
2022/06/04 00:16:29;;;;;;;6.35;4.32;;;19.20;99.90;;;;;;5015934;28;20208;-71
2022/06/04 00:18:55;;;;;;;5.03;4.53;;;19.20;99.90;;;;;;5016042;28;20222;-72
2022/06/04 00:21:22;;;;;;;4.88;4.38;;;19.10;99.90;;;;;;5023946;28;20185;-70
2022/06/04 00:23:49;;;;;;;6.57;4.47;;;19.00;99.90;;;;;;5022636;28;20181;-71
2022/06/04 00:26:15;;;;;;;5.75;4.40;;;18.90;99.90;;;;;;5035449;28;20227;-72
2022/06/04 00:28:40;;;;;;;5.90;5.03;;;19.00;99.90;;;;;;5035600;28;20181;-71
2022/06/04 00:31:06;;;;;;;4.40;4.00;;;19.00;99.90;;;;;;5031947;28;20223;-72
2022/06/04 00:33:32;;;;;;;13.13;4.40;;;18.90;99.90;;;;;;5034576;28;20256;-72
2022/06/04 00:35:59;;;;;;;5.43;4.90;;;18.90;99.90;;;;;;5036065;28;20551;-71
2022/06/04 00:38:28;;;;;;;5.60;4.80;;;18.90;99.90;;;;;;5035257;28;20161;-71
2022/06/04 00:40:59;;;;;;;7.30;4.90;;;18.90;99.90;;;;;;5035679;28;20173;-72
2022/06/04 00:43:25;;;;;;;5.55;4.32;;;19.00;99.90;;;;;;5034909;28;20518;-73
2022/06/04 00:46:27;;;;;;;5.68;4.32;;;19.00;99.90;;;;;;5035024;28;20161;-71
2022/06/04 00:48:54;;;;;;;4.47;4.07;;;18.90;99.90;;;;;;5035179;28;20605;-72
2022/06/04 00:51:20;;;;;;;4.40;4.00;;;18.90;99.90;;;;;;5035249;28;20194;-70
2022/06/04 00:53:46;;;;;;;6.95;4.95;;;18.80;99.90;;;;;;5035244;28;20153;-71
2022/06/04 00:56:35;;;;;;;5.75;4.40;;;18.70;99.90;;;;;;5035310;28;20240;-73
2022/06/04 00:59:26;;;;;;;4.80;4.30;;;18.70;99.90;;;;;;5035190;28;20267;-71
2022/06/04 01:02:15;;;;;;;5.65;3.97;;;18.50;99.90;;;;;;5035523;28;20243;-72
2022/06/04 01:04:54;;;;;;;4.93;4.28;;;18.50;99.90;;;;;;5035070;28;20175;-74
2022/06/04 01:08:10;;;;;;;4.80;4.40;;;18.40;99.90;;;;;;5035044;28;20200;-73
2022/06/04 01:10:50;;;;;;;4.80;4.40;;;18.30;99.90;;;;;;5032463;28;20195;-74
2022/06/04 01:13:28;;;;;;;4.82;4.18;;;18.30;99.90;;;;;;5032815;28;20173;-74
2022/06/04 01:16:18;;;;;;;6.40;4.45;;;18.20;99.90;;;;;;5032576;28;20612;-73
2022/06/04 01:19:06;;;;;;;4.85;4.32;;;18.20;99.90;;;;;;5016703;28;20647;-75
2022/06/04 01:22:02;;;;;;;4.50;4.10;;;18.10;99.90;;;;;;5014284;28;20197;-73
2022/06/04 01:24:38;;;;;;;5.47;4.22;;;18.00;99.90;;;;;;5034747;28;20161;-73
2022/06/04 01:27:10;;;;;;;6.03;4.28;;;18.10;99.90;;;;;;5039266;28;20565;-74
2022/06/04 01:29:54;;;;;;;6.07;4.10;;;18.10;99.90;;;;;;5055479;28;20180;-73
2022/06/04 01:32:28;;;;;;;6.20;4.90;;;17.90;99.90;;;;;;5057439;28;20569;-74
2022/06/04 01:35:06;;;;;;;6.75;4.40;;;17.80;99.90;;;;;;5056809;28;20234;-73
2022/06/04 01:37:44;;;;;;;5.13;4.63;;;17.80;99.90;;;;;;5055700;28;20180;-71
2022/06/04 01:42:59;;;;;;;5.28;4.78;;;17.70;99.90;;;;;;5036262;28;20167;-74
2022/06/04 01:45:27;;;;;;;6.30;4.38;;;17.70;99.90;;;;;;5035785;28;20161;-73
2022/06/04 01:47:56;;;;;;;5.47;4.78;;;17.70;99.90;;;;;;5034295;28;20193;-72
2022/06/04 01:50:31;;;;;;;5.82;4.70;;;17.60;99.90;;;;;;5034082;28;20172;-73
2022/06/04 01:53:01;;;;;;;7.40;4.57;;;17.60;99.90;;;;;;5034753;28;20215;-73
2022/06/04 01:55:36;;;;;;;6.15;5.55;;;17.60;99.90;;;;;;5033947;28;20168;-72
2022/06/04 01:58:05;;;;;;;7.00;5.00;;;17.50;99.90;;;;;;5034206;28;20175;-73
2022/06/04 02:00:46;;;;;;;5.80;4.93;;;17.50;99.90;;;;;;5034218;28;20169;-72
2022/06/04 02:03:17;;;;;;;5.88;4.82;;;17.30;99.90;;;;;;5033696;28;20354;-72
2022/06/04 02:05:56;;;;;;;7.53;4.75;;;17.30;99.90;;;;;;5034069;28;20165;-74
2022/06/04 02:08:30;;;;;;;6.28;4.90;;;17.40;99.90;;;;;;5033443;28;20168;-73
2022/06/04 02:11:07;;;;;;;5.45;4.93;;;17.40;99.90;;;;;;5048558;28;20180;-73
2022/06/04 02:13:34;;;;;;;7.32;5.05;;;17.40;99.90;;;;;;5033896;28;20177;-74
2022/06/04 02:16:08;;;;;;;7.60;5.40;;;17.40;99.90;;;;;;5033834;28;20176;-75
2022/06/04 02:18:34;;;;;;;6.55;5.65;;;17.40;99.90;;;;;;5033570;28;20161;-75
2022/06/04 02:21:01;;;;;;;5.53;5.03;;;17.40;99.90;;;;;;5033431;28;20180;-74
2022/06/04 02:23:29;;;;;;;10.43;5.25;;;17.40;99.90;;;;;;5033534;28;20647;-76
2022/06/04 02:25:56;;;;;;;7.00;5.68;;;17.30;99.90;;;;;;5033345;28;20160;-75
2022/06/04 02:28:21;;;;;;;5.35;4.85;;;17.30;99.90;;;;;;5048672;28;20176;-74
2022/06/04 02:31:31;;;;;;;6.82;5.72;;;17.30;99.90;;;;;;5033417;28;20226;-75
2022/06/04 02:34:13;;;;;;;7.45;5.75;;;17.40;99.90;;;;;;5026886;28;20199;-75
2022/06/04 02:36:55;;;;;;;6.63;5.93;;;17.50;99.90;;;;;;5032270;28;20204;-74
2022/06/04 02:39:34;;;;;;;8.10;6.40;;;17.60;99.90;;;;;;5034075;28;20161;-75
2022/06/04 02:42:03;;;;;;;6.60;5.80;;;17.50;99.90;;;;;;5033153;28;20165;-74
2022/06/04 02:44:34;;;;;;;7.40;6.18;;;17.50;99.90;;;;;;5033376;28;20597;-74
2022/06/04 02:47:14;;;;;;;7.68;5.75;;;17.60;99.90;;;;;;5033377;28;20270;-74
2022/06/04 02:49:53;;;;;;;6.97;5.97;;;17.60;99.90;;;;;;5032733;28;20271;-74
2022/06/04 02:52:20;;;;;;;6.68;5.97;;;17.50;99.90;;;;;;5032786;28;20170;-75
2022/06/04 02:54:55;;;;;;;6.97;6.18;;;17.50;99.90;;;;;;5033257;28;20251;-74
2022/06/04 02:57:22;;;;;;;8.20;6.22;;;17.40;99.90;;;;;;5033350;28;20162;-75
2022/06/04 02:59:50;;;;;;;6.60;5.88;;;17.40;99.90;;;;;;5033102;28;20157;-75
2022/06/04 03:02:19;;;;;;;7.10;6.22;;;17.40;99.90;;;;;;5033028;28;20568;-74
2022/06/04 03:04:52;;;;;;;6.60;5.95;;;17.40;99.90;;;;;;5033129;28;20165;-75
2022/06/04 03:07:21;;;;;;;7.03;6.32;;;17.40;99.90;;;;;;5033297;28;20197;-74
2022/06/04 03:09:49;;;;;;;13.07;6.07;;;17.30;99.90;;;;;;5032966;28;20198;-75
2022/06/04 03:12:15;;;;;;;8.13;6.03;;;17.40;99.90;;;;;;5033207;28;20594;-74
2022/06/04 03:14:41;;;;;;;8.23;5.97;;;17.50;99.90;;;;;;5033258;28;20163;-74
2022/06/04 03:17:10;;;;;;;7.13;5.82;;;17.40;99.90;;;;;;5032897;28;20161;-74
2022/06/04 03:19:36;;;;;;;6.93;6.20;;;17.50;99.90;;;;;;5033429;28;20223;-74
2022/06/04 03:22:01;;;;;;;6.95;6.25;;;17.40;99.90;;;;;;5032819;28;20165;-73
2022/06/04 03:24:27;;;;;;;7.18;6.13;;;17.40;99.90;;;;;;5032695;28;20168;-75
2022/06/04 03:26:53;;;;;;;9.88;6.78;;;17.40;99.90;;;;;;5033677;28;20323;-73
2022/06/04 03:29:19;;;;;;;7.97;6.18;;;17.40;99.90;;;;;;5034455;28;20158;-74
2022/06/04 03:31:44;;;;;;;7.68;6.78;;;17.40;99.90;;;;;;5048938;28;20172;-74
2022/06/04 03:34:11;;;;;;;10.00;7.45;;;17.50;99.90;;;;;;5033370;28;20164;-74
2022/06/04 03:36:39;;;;;;;7.15;6.40;;;17.40;99.90;;;;;;5034151;28;20178;-74
2022/06/04 03:39:08;;;;;;;7.43;6.47;;;17.40;99.90;;;;;;5035995;28;20208;-74
2022/06/04 03:41:34;;;;;;;6.90;6.13;;;17.40;99.90;;;;;;5036359;28;20200;-74
2022/06/04 03:44:00;;;;;;;8.43;7.03;;;17.20;99.90;;;;;;5040401;28;20508;-75
2022/06/04 03:46:26;;;;;;;7.03;6.32;;;17.30;99.90;;;;;;5037113;28;20207;-74
2022/06/04 03:48:56;;;;;;;7.72;6.88;;;17.40;99.90;;;;;;5038790;28;20169;-73
2022/06/04 03:51:24;;;;;;;8.80;6.82;;;17.40;99.90;;;;;;5039550;28;20207;-74
2022/06/04 03:53:49;;;;;;;7.80;6.95;;;17.50;99.90;;;;;;5041182;28;20194;-74
2022/06/04 03:56:15;;;;;;;6.85;6.25;;;17.30;99.90;;;;;;5042900;28;20169;-73
2022/06/04 03:58:41;;;;;;;8.40;6.75;;;17.10;99.90;;;;;;5038370;28;20620;-73
2022/06/04 04:01:25;;;;;;;8.15;7.32;;;17.30;99.90;;;;;;5036466;28;20260;-73
2022/06/04 04:03:50;;;;;;;7.72;6.95;;;17.40;99.90;;;;;;5046223;28;20188;-74
2022/06/04 04:06:23;;;;;;;9.40;7.85;;;17.30;99.90;;;;;;5046316;28;20284;-74
2022/06/04 04:08:49;;;;;;;8.20;6.88;;;17.40;99.90;;;;;;5044553;28;20176;-73
2022/06/04 04:11:17;;;;;;;8.00;7.20;;;17.50;99.90;;;;;;5041991;28;20245;-73
2022/06/04 04:13:43;;;;;;;10.88;7.25;;;17.40;99.90;;;;;;5038615;28;20169;-74
2022/06/04 04:16:10;;;;;;;9.50;8.20;;;17.50;99.90;;;;;;5034791;28;20654;-73
2022/06/04 04:18:36;;;;;;;9.85;7.53;;;17.30;99.90;;;;;;5039866;28;20676;-74
2022/06/04 04:21:11;;;;;;;8.43;7.53;;;17.40;99.90;;;;;;5040115;28;20184;-73
2022/06/04 04:23:37;;;;;;;9.95;7.50;;;17.50;99.90;;;;;;5037884;28;20160;-74
2022/06/04 04:26:04;;;;;;;8.35;7.53;;;17.40;99.90;;;;;;5040926;28;20153;-75
2022/06/04 04:28:30;;;;;;;9.63;7.38;;;17.40;99.90;;;;;;5043245;28;20302;-74
2022/06/04 04:30:56;;;;;;;9.25;8.05;;;17.50;99.90;;;;;;5041893;28;20192;-74
2022/06/04 04:33:22;;;;;;;9.68;7.72;;;17.50;99.90;;;;;;5038812;28;20153;-73
2022/06/04 04:35:48;;;;;;;8.13;7.20;;;17.50;99.90;;;;;;5035454;28;20165;-73
2022/06/04 04:38:15;;;;;;;7.90;7.10;;;17.50;99.90;;;;;;5035427;28;20207;-72
2022/06/04 04:40:42;;;;;;;8.55;7.20;;;17.50;99.90;;;;;;5035620;28;20165;-73
2022/06/04 04:43:08;;;;;;;8.07;7.28;;;17.50;99.90;;;;;;5032522;28;20178;-74
2022/06/04 04:45:34;;;;;;;11.70;7.72;;;17.50;99.90;;;;;;5016256;28;20599;-73
2022/06/04 04:48:00;;;;;;;8.35;7.53;;;17.50;99.90;;;;;;5016221;28;20284;-72
2022/06/04 04:50:33;;;;;;;8.88;7.57;;;17.60;99.90;;;;;;5015915;28;20594;-73
2022/06/04 04:53:00;;;;;;;11.07;8.20;;;17.70;99.90;;;;;;5014859;28;20674;-73
2022/06/04 04:55:25;;;;;;;9.00;8.10;;;17.70;99.90;;;;;;5015393;28;20570;-72
2022/06/04 04:57:51;;;;;;;9.77;8.77;;;17.70;99.90;;;;;;5015509;28;20174;-72
2022/06/04 05:00:19;;;;;;;10.32;9.30;;;17.70;99.90;;;;;;5014319;28;20174;-73
2022/06/04 05:02:45;;;;;;;10.13;8.05;;;17.70;99.90;;;;;;5015832;28;20236;-72
2022/06/04 05:05:11;;;;;;;10.50;9.10;;;17.80;99.90;;;;;;5015006;28;20177;-73
2022/06/04 05:07:41;;;;;;;10.50;8.63;;;17.70;99.90;;;;;;5015149;28;20294;-73
2022/06/04 05:10:09;;;;;;;9.65;8.43;;;17.70;99.90;;;;;;5014741;28;20571;-76
2022/06/04 05:12:35;;;;;;;9.75;7.90;;;17.70;99.90;;;;;;5015500;28;20162;-73
2022/06/04 05:15:01;;;;;;;9.90;7.70;;;17.70;99.90;;;;;;5015076;28;20188;-71
2022/06/04 05:17:27;;;;;;;9.68;8.75;;;17.80;99.90;;;;;;5016420;28;20170;-74
2022/06/04 05:19:52;;;;;;;9.18;8.27;;;17.80;99.90;;;;;;5017502;28;20170;-72
2022/06/04 05:22:18;;;;;;;10.85;8.63;;;17.80;99.90;;;;;;5015761;28;20245;-71
2022/06/04 05:24:44;;;;;;;9.20;8.30;;;17.70;99.90;;;;;;5017252;28;20620;-72
2022/06/04 05:27:10;;;;;;;11.18;8.70;;;17.80;99.90;;;;;;5015798;28;20201;-72
2022/06/04 05:29:37;;;;;;;8.57;7.68;;;17.90;99.90;;;;;;5015925;28;20250;-71
2022/06/04 05:32:04;;;;;;;10.30;8.32;;;17.80;99.90;;;;;;5017787;28;20648;-73
2022/06/04 05:34:31;;;;;;;10.18;8.50;;;17.80;99.90;;;;;;5015556;28;20228;-71
2022/06/04 05:36:57;;;;;;;9.65;8.00;;;17.90;99.90;;;;;;5014453;28;20172;-72
2022/06/04 05:39:23;;;;;;;10.50;9.40;;;18.00;99.90;;;;;;5014434;28;20197;-72
2022/06/04 05:41:49;;;;;;;10.70;9.60;;;18.00;99.90;;;;;;5014395;28;20240;-71
2022/06/04 05:44:15;;;;;;;9.32;8.43;;;18.00;99.90;;;;;;5014870;28;20188;-73
2022/06/04 05:46:42;;;;;;;9.68;8.68;;;18.10;99.90;;;;;;5014268;28;20618;-72
2022/06/04 05:49:10;;;;;;;8.85;7.95;;;18.00;99.90;;;;;;5014591;28;20188;-72
2022/06/04 05:51:36;;;;;;;13.57;8.52;;;18.10;99.90;;;;;;5014087;28;20515;-72
2022/06/04 05:54:02;;;;;;;10.07;8.98;;;18.00;99.90;;;;;;5014745;28;20172;-73
2022/06/04 05:56:30;;;;;;;11.20;9.20;;;18.00;99.90;;;;;;5014597;28;20173;-72
2022/06/04 05:58:58;;;;;;;10.23;9.23;;;18.10;99.90;;;;;;5014299;28;20192;-72
2022/06/04 06:01:26;;;;;;;11.77;10.07;;;18.10;99.90;;;;;;5014485;28;20192;-72
2022/06/04 06:03:52;;;;;;;10.65;9.07;;;18.10;99.90;;;;;;5014149;28;20169;-72
2022/06/04 06:06:24;;;;;;;10.13;9.13;;;18.10;99.90;;;;;;5014336;28;20204;-72
2022/06/04 06:08:51;;;;;;;10.27;9.27;;;18.10;99.90;;;;;;5014238;28;20196;-72
2022/06/04 06:11:18;;;;;;;12.15;9.50;;;18.20;99.90;;;;;;5013595;28;20293;-73
2022/06/04 06:13:46;;;;;;;12.27;10.30;;;18.20;99.90;;;;;;5013742;28;20203;-72
2022/06/04 06:16:15;;;;;;;11.02;9.20;;;18.10;99.90;;;;;;5013717;28;20257;-73
2022/06/04 06:18:41;;;;;;;10.25;9.27;;;18.20;99.90;;;;;;5013824;28;20609;-71
2022/06/04 06:21:09;;;;;;;11.40;9.57;;;18.30;99.90;;;;;;5013667;28;20168;-72
2022/06/04 06:23:35;;;;;;;11.77;10.25;;;18.20;99.90;;;;;;5015066;28;20200;-71
2022/06/04 06:26:11;;;;;;;10.02;9.00;;;18.10;99.90;;;;;;5014704;28;20161;-72
2022/06/04 06:28:37;;;;;;;10.48;8.52;;;18.10;99.90;;;;;;5015899;28;20153;-72
2022/06/04 06:31:04;;;;;;;12.98;9.05;;;18.20;99.90;;;;;;5013907;28;20165;-73
2022/06/04 06:33:30;;;;;;;11.05;9.90;;;18.20;99.90;;;;;;5013920;28;20184;-73
2022/06/04 06:35:57;;;;;;;10.05;8.90;;;18.10;99.90;;;;;;5013890;28;20174;-71
2022/06/04 06:38:23;;;;;;;12.88;9.32;;;18.10;99.90;;;;;;5013694;28;20227;-74
2022/06/04 06:40:49;;;;;;;9.95;8.95;;;18.10;99.90;;;;;;5011779;28;20177;-71
2022/06/04 06:43:15;;;;;;;9.27;8.38;;;18.10;99.90;;;;;;5013830;28;20169;-72
2022/06/04 06:45:41;;;;;;;10.35;8.77;;;18.10;99.90;;;;;;5013936;28;20574;-71
2022/06/04 06:48:08;;;;;;;10.25;9.15;;;18.20;99.90;;;;;;5013588;28;20193;-71
2022/06/04 06:50:34;;;;;;;11.63;9.48;;;18.30;99.90;;;;;;5013721;28;20197;-72
2022/06/04 06:53:00;;;;;;;9.27;8.38;;;18.30;99.90;;;;;;5013583;28;20192;-71
2022/06/04 06:55:26;;;;;;;12.18;8.05;;;18.30;99.90;;;;;;5013620;28;20629;-72
2022/06/04 06:57:52;;;;;;;8.70;7.32;;;18.30;99.90;;;;;;5013411;28;20180;-73
2022/06/04 07:00:18;;;;;;;8.18;7.38;;;18.30;99.90;;;;;;5013373;28;20503;-71
2022/06/04 07:02:43;;;;;;;8.98;7.28;;;18.30;99.90;;;;;;5013951;28;20228;-71
2022/06/04 07:05:09;;;;;;;9.90;8.25;;;18.30;99.90;;;;;;5013533;28;20173;-71
2022/06/04 07:07:35;;;;;;;8.88;7.28;;;18.30;99.90;;;;;;5012861;28;20198;-72
2022/06/04 07:10:00;;;;;;;11.50;7.50;;;18.30;99.90;;;;;;5013373;28;20502;-71
2022/06/04 07:12:26;;;;;;;8.70;7.68;;;18.30;99.90;;;;;;5013491;28;20193;-71
2022/06/04 07:14:52;;;;;;;9.43;7.70;;;18.30;99.90;;;;;;5013318;28;20172;-71
2022/06/04 07:17:17;;;;;;;8.60;7.35;;;18.30;99.90;;;;;;5013240;28;20633;-72
2022/06/04 07:19:43;;;;;;;8.40;7.03;;;18.30;99.90;;;;;;5013229;28;20165;-71
2022/06/04 07:22:10;;;;;;;11.65;7.07;;;18.30;99.90;;;;;;5013134;28;20165;-72
2022/06/04 07:24:36;;;;;;;7.45;6.60;;;18.40;99.90;;;;;;5016432;28;20186;-71
2022/06/04 07:27:01;;;;;;;8.27;7.43;;;18.40;99.90;;;;;;5016735;28;20618;-71
2022/06/04 07:29:28;;;;;;;8.15;7.35;;;18.40;99.90;;;;;;5016979;28;20169;-72
2022/06/04 07:31:54;;;;;;;7.72;7.00;;;18.50;99.90;;;;;;5017310;28;20648;-72
2022/06/04 07:34:20;;;;;;;8.52;6.90;;;18.50;99.90;;;;;;5016672;28;20165;-71
2022/06/04 07:36:46;;;;;;;8.90;8.00;;;18.40;99.90;;;;;;5016966;28;20166;-71
2022/06/04 07:39:14;;;;;;;8.40;6.85;;;18.50;99.90;;;;;;5016621;28;20598;-71
2022/06/04 07:41:43;;;;;;;9.82;7.57;;;18.50;99.90;;;;;;5016911;28;20637;-70
2022/06/04 07:44:10;;;;;;;7.07;6.47;;;18.60;99.90;;;;;;5015760;28;20222;-71
2022/06/04 07:46:36;;;;;;;7.47;6.78;;;18.60;99.90;;;;;;5016175;28;20194;-71
2022/06/04 07:49:05;;;;;;;7.35;6.63;;;18.60;99.90;;;;;;5016424;28;20162;-71
2022/06/04 07:51:33;;;;;;;9.23;6.63;;;18.70;99.90;;;;;;5016868;28;20582;-70
2022/06/04 07:53:59;;;;;;;7.53;6.80;;;18.70;99.90;;;;;;5016532;28;20215;-72
2022/06/04 07:56:25;;;;;;;8.30;7.30;;;18.70;99.90;;;;;;5016229;28;20248;-71
2022/06/04 07:58:51;;;;;;;7.00;6.30;;;18.60;99.90;;;;;;5016419;28;20178;-71
2022/06/04 08:01:19;;;;;;;7.32;6.50;;;18.60;99.90;;;;;;5016169;28;20178;-72
2022/06/04 08:03:46;;;;;;;7.47;6.68;;;18.70;99.90;;;;;;5016022;28;20233;-72
2022/06/04 08:06:15;;;;;;;9.13;6.90;;;18.60;99.90;;;;;;5015111;28;20208;-70
2022/06/04 08:08:41;;;;;;;10.23;6.75;;;18.60;99.90;;;;;;5016352;28;20264;-70
2022/06/04 08:13:52;;;;;;;8.93;6.55;;;18.70;99.90;;;;;;5015981;28;20256;-71
2022/06/04 08:16:19;;;;;;;11.55;7.07;;;18.70;99.90;;;;;;5016578;28;20154;-70
2022/06/04 08:18:45;;;;;;;7.57;6.78;;;18.70;99.90;;;;;;5015817;28;20170;-71
2022/06/04 08:21:11;;;;;;;7.68;6.88;;;18.70;99.90;;;;;;5016124;28;20180;-71
2022/06/04 08:23:39;;;;;;;9.23;6.47;;;18.70;99.90;;;;;;5031517;28;20170;-72
2022/06/04 08:26:07;;;;;;;7.57;6.38;;;18.80;99.90;;;;;;5016140;28;20158;-72
2022/06/04 08:28:33;;;;;;;7.85;7.07;;;18.80;99.90;;;;;;5015796;28;20204;-71
2022/06/04 08:31:07;;;;;;;8.02;7.05;;;18.90;99.90;;;;;;5016180;28;20170;-72
2022/06/04 08:33:32;;;;;;;8.18;7.38;;;19.00;99.90;;;;;;5016047;28;20173;-72
2022/06/04 08:35:58;;;;;;;8.32;6.50;;;19.00;99.90;;;;;;5015545;28;20170;-71
2022/06/04 08:38:24;;;;;;;7.60;6.90;;;19.00;99.90;;;;;;5015386;28;20569;-71
2022/06/04 08:40:56;;;;;;;6.72;5.80;;;19.10;99.90;;;;;;5015498;28;20162;-71
2022/06/04 08:43:33;;;;;;;9.93;6.78;;;19.10;99.90;;;;;;5015900;28;20213;-71
2022/06/04 08:46:01;;;;;;;7.72;6.85;;;19.20;99.90;;;;;;5015382;28;20170;-71
2022/06/04 08:48:37;;;;;;;8.10;7.05;;;19.30;99.90;;;;;;5015776;28;20225;-69
2022/06/04 08:51:10;;;;;;;7.65;6.90;;;19.40;99.90;;;;;;5016252;28;20180;-69
2022/06/04 08:53:35;;;;;;;8.18;6.53;;;19.40;99.90;;;;;;5015610;28;20546;-74
2022/06/04 08:59:22;;;;;;;8.38;7.10;;;19.60;99.90;;;;;;5014875;28;20152;-72
2022/06/04 09:01:53;;;;;;;8.20;7.32;;;19.80;99.90;;;;;;5015632;28;20376;-71
2022/06/04 09:04:45;;;;;;;8.00;6.90;;;19.70;99.90;;;;;;5016705;28;20249;-71
2022/06/04 09:07:28;;;;;;;8.48;7.68;;;19.90;99.90;;;;;;5016731;28;20204;-71
2022/06/04 09:10:15;;;;;;;12.13;7.97;;;20.00;99.90;;;;;;5035603;28;20187;-72
2022/06/04 09:12:47;;;;;;;9.48;7.78;;;20.10;99.90;;;;;;5037194;28;20187;-71
2022/06/04 09:15:12;;;;;;;11.30;8.02;;;20.20;99.90;;;;;;5036936;28;20497;-72
2022/06/04 09:17:48;;;;;;;24.95;11.80;;;20.20;99.90;;;;;;5036320;28;20241;-72
2022/06/04 09:20:35;;;;;;;11.60;8.40;;;20.40;99.90;;;;;;5036342;28;20735;-71
2022/06/04 09:23:30;;;;;;;8.18;6.95;;;20.20;99.90;;;;;;5034988;28;20179;-71
2022/06/04 09:26:04;;;;;;;8.10;6.47;;;20.20;99.90;;;;;;5035003;28;20165;-72
2022/06/04 09:28:32;;;;;;;9.13;7.28;;;20.30;99.90;;;;;;5034452;28;20250;-71
2022/06/04 09:31:25;;;;;;;7.60;6.80;;;20.40;99.90;;;;;;5034097;28;20169;-71
2022/06/04 09:34:02;;;;;;;7.35;6.63;;;20.40;99.90;;;;;;5034202;28;20561;-71
2022/06/04 09:36:34;;;;;;;7.80;7.00;;;20.40;99.90;;;;;;5033887;28;20164;-71
2022/06/04 09:39:17;;;;;;;8.70;6.85;;;20.40;99.90;;;;;;5033714;28;20157;-71
2022/06/04 09:41:49;;;;;;;7.78;7.07;;;20.50;99.90;;;;;;5034249;28;20164;-72
2022/06/04 09:44:16;;;;;;;8.07;6.47;;;20.70;99.90;;;;;;5034060;28;20165;-70
2022/06/04 09:46:45;;;;;;;6.32;5.72;;;20.80;99.90;;;;;;5033667;28;20192;-72
2022/06/04 09:49:29;;;;;;;8.32;6.88;;;21.10;99.90;;;;;;5034309;28;20178;-72
2022/06/04 09:51:56;;;;;;;7.20;6.35;;;21.10;99.90;;;;;;5033203;28;20285;-71
2022/06/04 09:54:29;;;;;;;6.63;6.03;;;21.30;99.90;;;;;;5034300;28;20172;-71
2022/06/04 09:57:02;;;;;;;6.97;6.20;;;21.40;99.90;;;;;;5033805;28;20173;-70
2022/06/04 09:59:30;;;;;;;6.68;6.07;;;21.40;99.90;;;;;;5032838;28;20200;-71
2022/06/04 10:02:11;;;;;;;6.20;5.55;;;21.80;99.90;;;;;;5034071;28;20287;-71
2022/06/04 10:04:40;;;;;;;6.90;6.22;;;22.00;99.90;;;;;;5033574;28;20172;-71
2022/06/04 10:07:12;;;;;;;7.07;6.32;;;22.20;99.90;;;;;;5033874;28;20197;-72
2022/06/04 10:09:58;;;;;;;5.93;5.30;;;22.70;99.90;;;;;;5027288;28;20182;-72
2022/06/04 10:13:42;;;;;;;6.60;5.00;;;22.40;99.90;;;;;;5014117;28;20173;-72
2022/06/04 10:15:41;;;;;;;5.43;4.93;;;22.20;99.90;;;;;;5013127;28;20190;-72
2022/06/04 10:18:16;;;;;;;6.35;5.57;;;22.30;99.90;;;;;;5014490;28;20540;-72
2022/06/04 10:20:51;;;;;;;6.43;5.70;;;22.80;99.90;;;;;;5013767;28;20157;-72
2022/06/04 10:23:17;;;;;;;5.40;4.90;;;22.70;99.90;;;;;;5013978;28;20169;-71
2022/06/04 10:25:47;;;;;;;4.80;4.40;;;22.60;99.90;;;;;;5014951;28;20185;-72
2022/06/04 10:28:31;;;;;;;5.85;4.70;;;22.60;99.90;;;;;;5033691;28;20208;-73
2022/06/04 10:31:20;;;;;;;7.05;5.00;;;22.30;99.90;;;;;;5033702;28;20267;-71
2022/06/04 10:34:04;;;;;;;5.57;4.85;;;22.40;99.90;;;;;;5033867;28;20174;-73
2022/06/04 10:36:45;;;;;;;4.70;4.30;;;22.50;99.90;;;;;;5033339;28;20172;-73
2022/06/04 10:39:28;;;;;;;5.40;4.63;;;22.60;99.90;;;;;;5033717;28;20176;-73
2022/06/04 10:42:02;;;;;;;5.63;5.03;;;22.80;99.90;;;;;;5032888;28;20157;-73
2022/06/04 10:44:48;;;;;;;8.23;5.53;;;23.10;99.90;;;;;;5032839;28;20248;-73
2022/06/04 10:47:34;;;;;;;6.28;5.13;;;23.20;99.90;;;;;;5032958;28;20522;-72
2022/06/04 10:50:11;;;;;;;5.82;5.22;;;23.40;99.90;;;;;;5032929;28;20234;-72
2022/06/04 10:52:47;;;;;;;6.13;4.63;;;23.20;99.90;;;;;;5033521;28;20161;-72
2022/06/04 10:55:16;;;;;;;4.28;3.97;;;23.30;99.90;;;;;;5032964;28;20175;-72
2022/06/04 10:58:14;;;;;;;5.88;4.70;;;23.50;99.90;;;;;;5033276;28;20157;-73
2022/06/04 11:00:43;;;;;;;7.00;6.30;;;23.10;99.90;;;;;;5036021;28;20179;-74
2022/06/04 11:03:32;;;;;;;7.10;6.45;;;22.80;99.90;;;;;;5036676;28;20264;-72
2022/06/04 11:06:21;;;;;;;8.80;6.47;;;22.30;99.90;;;;;;5037460;28;20200;-72
2022/06/04 11:09:08;;;;;;;7.97;7.28;;;22.30;99.90;;;;;;5036175;28;20188;-71
2022/06/04 11:11:40;;;;;;;8.13;7.28;;;22.30;99.90;;;;;;5036978;28;20165;-71
2022/06/04 11:14:34;;;;;;;8.02;7.22;;;22.10;99.90;;;;;;5036872;28;20555;-73
2022/06/04 11:17:17;;;;;;;11.65;7.45;;;22.10;99.90;;;;;;5036247;28;20188;-72
2022/06/04 11:19:56;;;;;;;8.60;7.47;;;22.10;99.90;;;;;;5037651;28;20171;-72
2022/06/04 11:22:35;;;;;;;10.52;8.15;;;22.00;99.90;;;;;;5037348;28;20165;-74
2022/06/04 11:25:24;;;;;;;11.20;9.65;;;22.00;99.90;;;;;;5037078;28;20244;-73
2022/06/04 11:27:58;;;;;;;10.20;8.38;;;22.00;99.90;;;;;;5036867;28;20315;-74
2022/06/04 11:30:46;;;;;;;8.98;7.65;;;22.10;99.90;;;;;;5036651;28;20505;-73
2022/06/04 11:33:39;;;;;;;10.27;9.20;;;22.40;99.90;;;;;;5037211;28;20220;-72
2022/06/04 11:36:24;;;;;;;10.75;9.60;;;22.70;99.90;;;;;;5036684;28;20165;-74
2022/06/04 11:39:09;;;;;;;14.50;10.27;;;22.70;99.90;;;;;;5037192;28;20157;-74
2022/06/04 11:41:58;;;;;;;13.23;9.70;;;22.40;99.90;;;;;;5036822;28;20505;-72
2022/06/04 11:44:29;;;;;;;11.20;9.70;;;22.30;99.90;;;;;;5036905;28;20173;-72
2022/06/04 11:47:19;;;;;;;11.32;8.98;;;22.40;99.90;;;;;;5036573;28;20188;-73
2022/06/04 11:50:24;;;;;;;70.80;34.80;;;22.50;99.90;;;;;;5036360;28;20173;-72
2022/06/04 11:53:14;;;;;;;11.00;10.00;;;22.50;99.90;;;;;;5017489;28;20197;-72
2022/06/04 11:55:40;;;;;;;10.80;9.70;;;22.10;99.90;;;;;;5032087;28;20348;-72
2022/06/04 11:58:20;;;;;;;9.80;8.80;;;22.10;99.90;;;;;;5035850;28;20222;-72
2022/06/04 12:00:48;;;;;;;10.10;9.07;;;22.20;99.90;;;;;;5036700;28;20165;-71
2022/06/04 12:03:24;;;;;;;10.32;9.35;;;22.20;99.90;;;;;;5036665;28;20298;-73
2022/06/04 12:06:17;;;;;;;10.38;8.52;;;22.20;99.90;;;;;;5036523;28;20164;-72
2022/06/04 12:08:53;;;;;;;11.88;8.55;;;22.20;99.90;;;;;;5035697;28;20205;-71
2022/06/04 12:11:28;;;;;;;9.02;8.13;;;22.20;99.90;;;;;;5036701;28;20164;-71
2022/06/04 12:14:21;;;;;;;9.10;8.00;;;22.00;99.90;;;;;;5036492;28;20251;-73
2022/06/04 12:17:07;;;;;;;8.40;7.50;;;22.20;99.90;;;;;;5035511;28;20567;-70
2022/06/04 12:25:19;;;;;;;8.35;7.03;;;22.40;99.90;;;;;;5036210;28;20188;-71
2022/06/04 12:27:56;;;;;;;9.43;7.22;;;22.50;99.90;;;;;;5052672;28;20276;-72
2022/06/04 12:30:36;;;;;;;7.47;6.47;;;22.50;99.90;;;;;;5037880;28;20230;-72
2022/06/04 12:33:10;;;;;;;7.60;6.90;;;22.80;99.90;;;;;;5036488;28;20187;-71
2022/06/04 12:35:36;;;;;;;7.32;6.63;;;22.50;99.90;;;;;;5035820;28;20196;-71
2022/06/04 12:38:12;;;;;;;8.30;7.40;;;22.40;99.90;;;;;;5035752;28;20314;-70
2022/06/04 12:40:38;;;;;;;7.57;6.88;;;22.50;99.90;;;;;;5035828;28;20172;-71
2022/06/04 12:43:19;;;;;;;8.00;7.30;;;22.40;99.90;;;;;;5036905;28;20192;-71
2022/06/04 12:45:46;;;;;;;8.27;7.28;;;22.40;99.90;;;;;;5037062;28;20475;-72
2022/06/04 12:48:49;;;;;;;8.20;7.40;;;22.50;99.90;;;;;;5035996;28;20251;-70
2022/06/04 12:51:27;;;;;;;11.07;8.80;;;22.60;99.90;;;;;;5032196;28;20189;-72
2022/06/04 12:54:03;;;;;;;10.30;7.70;;;22.40;99.90;;;;;;5035112;28;20182;-70
2022/06/04 12:56:32;;;;;;;8.40;7.15;;;22.50;99.90;;;;;;5036019;28;20215;-70
2022/06/04 12:59:01;;;;;;;9.32;7.32;;;22.20;99.90;;;;;;5035908;28;20184;-72
2022/06/04 13:01:29;;;;;;;8.77;7.07;;;22.20;99.90;;;;;;5037451;28;20189;-71
2022/06/04 13:04:17;;;;;;;12.10;7.00;;;22.30;99.90;;;;;;5050155;28;20275;-71
2022/06/04 13:07:00;;;;;;;8.05;6.65;;;22.30;99.90;;;;;;5035393;28;20196;-71
2022/06/04 13:09:44;;;;;;;9.00;8.02;;;22.40;99.90;;;;;;5035433;28;20661;-72
2022/06/04 13:12:33;;;;;;;7.93;7.07;;;22.40;99.90;;;;;;5035271;28;20184;-72
2022/06/04 13:15:30;;;;;;;8.80;7.90;;;22.40;99.90;;;;;;5035272;28;20169;-71
2022/06/04 13:17:55;;;;;;;8.25;7.40;;;22.30;99.90;;;;;;5034689;28;20299;-71
2022/06/04 13:20:28;;;;;;;8.05;7.28;;;22.20;99.90;;;;;;5034542;28;20203;-71
2022/06/04 13:23:28;;;;;;;8.30;7.47;;;22.10;99.90;;;;;;5034738;28;20172;-70
2022/06/04 13:26:19;;;;;;;8.30;7.50;;;22.20;99.90;;;;;;5018284;28;20189;-71
2022/06/04 13:28:49;;;;;;;8.05;7.35;;;22.10;99.90;;;;;;5034396;28;20173;-72
2022/06/04 13:31:29;;;;;;;8.02;7.22;;;22.20;99.90;;;;;;5034243;28;20196;-71
2022/06/04 13:33:58;;;;;;;7.68;6.97;;;22.10;99.90;;;;;;5034003;28;20184;-72